sensor_id;sensor_type;location;lat;lon;timestamp;P1;durP1;ratioP1;P2;durP2;ratioP2
12689;SDS011;6409;56.294;14.480;2023-06-26T00:00:01;0.30;;;0.30;;
12689;SDS011;6409;56.294;14.480;2023-06-26T00:02:30;0.30;;;0.30;;
12689;SDS011;6409;56.294;14.480;2023-06-26T00:04:58;0.30;;;0.30;;
12689;SDS011;6409;56.294;14.480;2023-06-26T00:07:27;0.30;;;0.30;;
12689;SDS011;6409;56.294;14.480;2023-06-26T00:09:54;0.30;;;0.30;;
12689;SDS011;6409;56.294;14.480;2023-06-26T00:12:23;0.30;;;0.30;;
12689;SDS011;6409;56.294;14.480;2023-06-26T00:14:50;0.30;;;0.30;;
12689;SDS011;6409;56.294;14.480;2023-06-26T00:17:16;0.30;;;0.30;;
12689;SDS011;6409;56.294;14.480;2023-06-26T00:19:43;0.30;;;0.30;;
12689;SDS011;6409;56.294;14.480;2023-06-26T00:22:10;0.30;;;0.30;;
12689;SDS011;6409;56.294;14.480;2023-06-26T00:24:37;0.30;;;0.30;;
12689;SDS011;6409;56.294;14.480;2023-06-26T00:27:04;0.30;;;0.30;;
12689;SDS011;6409;56.294;14.480;2023-06-26T00:29:33;0.30;;;0.30;;
12689;SDS011;6409;56.294;14.480;2023-06-26T00:32:00;0.30;;;0.30;;
12689;SDS011;6409;56.294;14.480;2023-06-26T00:34:27;0.43;;;0.43;;
12689;SDS011;6409;56.294;14.480;2023-06-26T00:36:54;0.40;;;0.40;;
12689;SDS011;6409;56.294;14.480;2023-06-26T00:39:21;0.50;;;0.50;;
12689;SDS011;6409;56.294;14.480;2023-06-26T00:41:50;0.40;;;0.40;;
12689;SDS011;6409;56.294;14.480;2023-06-26T00:44:18;0.40;;;0.40;;
12689;SDS011;6409;56.294;14.480;2023-06-26T00:46:47;0.40;;;0.40;;
12689;SDS011;6409;56.294;14.480;2023-06-26T00:49:14;0.40;;;0.40;;
12689;SDS011;6409;56.294;14.480;2023-06-26T00:51:41;0.40;;;0.40;;
12689;SDS011;6409;56.294;14.480;2023-06-26T00:54:08;0.30;;;0.30;;
12689;SDS011;6409;56.294;14.480;2023-06-26T00:56:35;0.30;;;0.30;;
12689;SDS011;6409;56.294;14.480;2023-06-26T00:59:02;0.30;;;0.30;;
12689;SDS011;6409;56.294;14.480;2023-06-26T01:01:29;0.30;;;0.30;;
12689;SDS011;6409;56.294;14.480;2023-06-26T01:03:57;0.30;;;0.30;;
12689;SDS011;6409;56.294;14.480;2023-06-26T01:06:25;0.30;;;0.30;;
12689;SDS011;6409;56.294;14.480;2023-06-26T01:08:52;0.30;;;0.30;;
12689;SDS011;6409;56.294;14.480;2023-06-26T01:11:19;0.30;;;0.30;;
12689;SDS011;6409;56.294;14.480;2023-06-26T01:13:46;0.30;;;0.30;;
12689;SDS011;6409;56.294;14.480;2023-06-26T01:16:15;0.30;;;0.30;;
12689;SDS011;6409;56.294;14.480;2023-06-26T01:18:44;0.30;;;0.30;;
12689;SDS011;6409;56.294;14.480;2023-06-26T01:21:15;0.30;;;0.30;;
12689;SDS011;6409;56.294;14.480;2023-06-26T01:23:46;0.30;;;0.30;;
12689;SDS011;6409;56.294;14.480;2023-06-26T01:26:18;0.30;;;0.30;;
12689;SDS011;6409;56.294;14.480;2023-06-26T01:28:46;0.30;;;0.30;;
12689;SDS011;6409;56.294;14.480;2023-06-26T01:31:13;0.30;;;0.30;;
12689;SDS011;6409;56.294;14.480;2023-06-26T01:33:41;0.30;;;0.30;;
12689;SDS011;6409;56.294;14.480;2023-06-26T01:36:09;0.30;;;0.30;;
12689;SDS011;6409;56.294;14.480;2023-06-26T01:38:36;0.30;;;0.30;;
12689;SDS011;6409;56.294;14.480;2023-06-26T01:41:03;0.30;;;0.30;;
12689;SDS011;6409;56.294;14.480;2023-06-26T01:43:34;0.30;;;0.30;;
12689;SDS011;6409;56.294;14.480;2023-06-26T01:46:09;0.30;;;0.30;;
12689;SDS011;6409;56.294;14.480;2023-06-26T01:48:42;0.30;;;0.30;;
12689;SDS011;6409;56.294;14.480;2023-06-26T01:51:13;0.30;;;0.30;;
12689;SDS011;6409;56.294;14.480;2023-06-26T01:53:41;0.30;;;0.30;;
12689;SDS011;6409;56.294;14.480;2023-06-26T01:56:11;0.30;;;0.30;;
12689;SDS011;6409;56.294;14.480;2023-06-26T01:58:43;0.30;;;0.30;;
12689;SDS011;6409;56.294;14.480;2023-06-26T02:01:11;0.27;;;0.27;;
12689;SDS011;6409;56.294;14.480;2023-06-26T02:03:38;0.30;;;0.30;;
12689;SDS011;6409;56.294;14.480;2023-06-26T02:06:05;0.30;;;0.30;;
12689;SDS011;6409;56.294;14.480;2023-06-26T02:08:32;0.30;;;0.30;;
12689;SDS011;6409;56.294;14.480;2023-06-26T02:10:59;0.30;;;0.30;;
12689;SDS011;6409;56.294;14.480;2023-06-26T02:13:26;0.30;;;0.30;;
12689;SDS011;6409;56.294;14.480;2023-06-26T02:15:54;0.30;;;0.30;;
12689;SDS011;6409;56.294;14.480;2023-06-26T02:18:21;0.30;;;0.30;;
12689;SDS011;6409;56.294;14.480;2023-06-26T02:20:48;0.30;;;0.30;;
12689;SDS011;6409;56.294;14.480;2023-06-26T02:23:15;0.30;;;0.30;;
12689;SDS011;6409;56.294;14.480;2023-06-26T02:25:42;0.30;;;0.30;;
12689;SDS011;6409;56.294;14.480;2023-06-26T02:28:09;0.30;;;0.30;;
12689;SDS011;6409;56.294;14.480;2023-06-26T02:30:35;0.30;;;0.30;;
12689;SDS011;6409;56.294;14.480;2023-06-26T02:33:04;0.30;;;0.30;;
12689;SDS011;6409;56.294;14.480;2023-06-26T02:35:31;0.30;;;0.30;;
12689;SDS011;6409;56.294;14.480;2023-06-26T02:37:58;0.30;;;0.30;;
12689;SDS011;6409;56.294;14.480;2023-06-26T02:40:25;0.30;;;0.30;;
12689;SDS011;6409;56.294;14.480;2023-06-26T02:42:52;0.30;;;0.30;;
12689;SDS011;6409;56.294;14.480;2023-06-26T02:45:19;0.30;;;0.30;;
12689;SDS011;6409;56.294;14.480;2023-06-26T02:47:46;0.30;;;0.30;;
12689;SDS011;6409;56.294;14.480;2023-06-26T02:50:14;0.30;;;0.30;;
12689;SDS011;6409;56.294;14.480;2023-06-26T02:52:41;0.30;;;0.30;;
12689;SDS011;6409;56.294;14.480;2023-06-26T02:55:08;0.30;;;0.30;;
12689;SDS011;6409;56.294;14.480;2023-06-26T02:57:35;0.30;;;0.30;;
12689;SDS011;6409;56.294;14.480;2023-06-26T03:00:02;0.30;;;0.30;;
12689;SDS011;6409;56.294;14.480;2023-06-26T03:02:31;0.30;;;0.30;;
12689;SDS011;6409;56.294;14.480;2023-06-26T03:04:58;0.30;;;0.30;;
12689;SDS011;6409;56.294;14.480;2023-06-26T03:07:26;0.30;;;0.30;;
12689;SDS011;6409;56.294;14.480;2023-06-26T03:09:53;0.30;;;0.30;;
12689;SDS011;6409;56.294;14.480;2023-06-26T03:12:20;0.30;;;0.30;;
12689;SDS011;6409;56.294;14.480;2023-06-26T03:14:47;0.30;;;0.30;;
12689;SDS011;6409;56.294;14.480;2023-06-26T03:17:14;0.30;;;0.30;;
12689;SDS011;6409;56.294;14.480;2023-06-26T03:19:41;0.30;;;0.30;;
12689;SDS011;6409;56.294;14.480;2023-06-26T03:22:08;0.30;;;0.30;;
12689;SDS011;6409;56.294;14.480;2023-06-26T03:24:36;0.30;;;0.30;;
12689;SDS011;6409;56.294;14.480;2023-06-26T03:27:03;0.30;;;0.30;;
12689;SDS011;6409;56.294;14.480;2023-06-26T03:29:30;0.30;;;0.30;;
12689;SDS011;6409;56.294;14.480;2023-06-26T03:31:57;0.30;;;0.30;;
12689;SDS011;6409;56.294;14.480;2023-06-26T03:34:24;0.30;;;0.30;;
12689;SDS011;6409;56.294;14.480;2023-06-26T03:36:51;0.30;;;0.30;;
12689;SDS011;6409;56.294;14.480;2023-06-26T03:39:17;0.30;;;0.30;;
12689;SDS011;6409;56.294;14.480;2023-06-26T03:41:46;0.30;;;0.30;;
12689;SDS011;6409;56.294;14.480;2023-06-26T03:44:13;0.40;;;0.40;;
12689;SDS011;6409;56.294;14.480;2023-06-26T03:46:40;0.40;;;0.40;;
12689;SDS011;6409;56.294;14.480;2023-06-26T03:49:07;0.40;;;0.40;;
12689;SDS011;6409;56.294;14.480;2023-06-26T03:51:35;0.40;;;0.40;;
12689;SDS011;6409;56.294;14.480;2023-06-26T03:54:02;0.30;;;0.30;;
12689;SDS011;6409;56.294;14.480;2023-06-26T03:56:29;0.40;;;0.40;;
12689;SDS011;6409;56.294;14.480;2023-06-26T03:58:57;0.40;;;0.40;;
12689;SDS011;6409;56.294;14.480;2023-06-26T04:01:25;0.40;;;0.40;;
12689;SDS011;6409;56.294;14.480;2023-06-26T04:03:52;0.30;;;0.30;;
12689;SDS011;6409;56.294;14.480;2023-06-26T04:06:19;0.30;;;0.30;;
12689;SDS011;6409;56.294;14.480;2023-06-26T04:08:46;0.30;;;0.30;;
12689;SDS011;6409;56.294;14.480;2023-06-26T04:11:13;0.30;;;0.30;;
12689;SDS011;6409;56.294;14.480;2023-06-26T04:13:40;0.30;;;0.30;;
12689;SDS011;6409;56.294;14.480;2023-06-26T04:16:08;0.30;;;0.30;;
12689;SDS011;6409;56.294;14.480;2023-06-26T04:18:36;0.30;;;0.30;;
12689;SDS011;6409;56.294;14.480;2023-06-26T04:21:04;0.30;;;0.30;;
12689;SDS011;6409;56.294;14.480;2023-06-26T04:23:32;0.30;;;0.30;;
12689;SDS011;6409;56.294;14.480;2023-06-26T04:25:59;0.30;;;0.30;;
12689;SDS011;6409;56.294;14.480;2023-06-26T04:28:27;0.20;;;0.20;;
12689;SDS011;6409;56.294;14.480;2023-06-26T04:30:54;0.30;;;0.30;;
12689;SDS011;6409;56.294;14.480;2023-06-26T04:33:22;0.30;;;0.30;;
12689;SDS011;6409;56.294;14.480;2023-06-26T04:35:50;0.30;;;0.30;;
12689;SDS011;6409;56.294;14.480;2023-06-26T04:38:17;0.30;;;0.30;;
12689;SDS011;6409;56.294;14.480;2023-06-26T04:40:45;0.30;;;0.30;;
12689;SDS011;6409;56.294;14.480;2023-06-26T04:43:12;0.30;;;0.30;;
12689;SDS011;6409;56.294;14.480;2023-06-26T04:45:38;0.30;;;0.30;;
12689;SDS011;6409;56.294;14.480;2023-06-26T04:48:05;0.30;;;0.30;;
12689;SDS011;6409;56.294;14.480;2023-06-26T04:50:35;0.30;;;0.30;;
12689;SDS011;6409;56.294;14.480;2023-06-26T04:53:02;0.30;;;0.30;;
12689;SDS011;6409;56.294;14.480;2023-06-26T04:55:29;0.30;;;0.30;;
12689;SDS011;6409;56.294;14.480;2023-06-26T04:57:55;0.30;;;0.30;;
12689;SDS011;6409;56.294;14.480;2023-06-26T05:00:22;0.40;;;0.40;;
12689;SDS011;6409;56.294;14.480;2023-06-26T05:02:50;0.30;;;0.30;;
12689;SDS011;6409;56.294;14.480;2023-06-26T05:05:24;0.40;;;0.40;;
12689;SDS011;6409;56.294;14.480;2023-06-26T05:07:53;0.40;;;0.40;;
12689;SDS011;6409;56.294;14.480;2023-06-26T05:10:20;0.40;;;0.40;;
12689;SDS011;6409;56.294;14.480;2023-06-26T05:12:47;0.40;;;0.40;;
12689;SDS011;6409;56.294;14.480;2023-06-26T05:15:14;0.50;;;0.50;;
12689;SDS011;6409;56.294;14.480;2023-06-26T05:17:41;0.50;;;0.50;;
12689;SDS011;6409;56.294;14.480;2023-06-26T05:20:08;0.50;;;0.50;;
12689;SDS011;6409;56.294;14.480;2023-06-26T05:22:36;0.50;;;0.50;;
12689;SDS011;6409;56.294;14.480;2023-06-26T05:25:06;0.60;;;0.60;;
12689;SDS011;6409;56.294;14.480;2023-06-26T05:27:36;0.60;;;0.60;;
12689;SDS011;6409;56.294;14.480;2023-06-26T05:30:04;0.60;;;0.60;;
12689;SDS011;6409;56.294;14.480;2023-06-26T05:32:32;0.60;;;0.60;;
12689;SDS011;6409;56.294;14.480;2023-06-26T05:35:01;0.60;;;0.60;;
12689;SDS011;6409;56.294;14.480;2023-06-26T05:37:29;0.50;;;0.50;;
12689;SDS011;6409;56.294;14.480;2023-06-26T05:39:58;0.52;;;0.52;;
12689;SDS011;6409;56.294;14.480;2023-06-26T05:42:30;0.60;;;0.60;;
12689;SDS011;6409;56.294;14.480;2023-06-26T05:44:59;0.60;;;0.60;;
12689;SDS011;6409;56.294;14.480;2023-06-26T05:47:27;0.80;;;0.80;;
12689;SDS011;6409;56.294;14.480;2023-06-26T05:49:55;0.80;;;0.80;;
12689;SDS011;6409;56.294;14.480;2023-06-26T05:52:23;0.90;;;0.90;;
12689;SDS011;6409;56.294;14.480;2023-06-26T05:54:52;0.90;;;0.90;;
12689;SDS011;6409;56.294;14.480;2023-06-26T05:57:19;0.80;;;0.80;;
12689;SDS011;6409;56.294;14.480;2023-06-26T05:59:48;0.90;;;0.90;;
12689;SDS011;6409;56.294;14.480;2023-06-26T06:02:15;0.80;;;0.80;;
12689;SDS011;6409;56.294;14.480;2023-06-26T06:04:42;0.90;;;0.90;;
12689;SDS011;6409;56.294;14.480;2023-06-26T06:07:09;0.90;;;0.90;;
12689;SDS011;6409;56.294;14.480;2023-06-26T06:09:36;0.80;;;0.80;;
12689;SDS011;6409;56.294;14.480;2023-06-26T06:12:03;0.80;;;0.80;;
12689;SDS011;6409;56.294;14.480;2023-06-26T06:14:30;1.10;;;1.10;;
12689;SDS011;6409;56.294;14.480;2023-06-26T06:17:00;1.00;;;1.00;;
12689;SDS011;6409;56.294;14.480;2023-06-26T06:19:27;1.00;;;1.00;;
12689;SDS011;6409;56.294;14.480;2023-06-26T06:21:54;1.50;;;1.50;;
12689;SDS011;6409;56.294;14.480;2023-06-26T06:24:21;1.60;;;1.60;;
12689;SDS011;6409;56.294;14.480;2023-06-26T06:26:48;1.80;;;1.80;;
12689;SDS011;6409;56.294;14.480;2023-06-26T06:29:15;2.10;;;2.10;;
12689;SDS011;6409;56.294;14.480;2023-06-26T06:31:44;2.15;;;2.15;;
12689;SDS011;6409;56.294;14.480;2023-06-26T06:34:12;1.60;;;1.60;;
12689;SDS011;6409;56.294;14.480;2023-06-26T06:36:39;1.80;;;1.80;;
12689;SDS011;6409;56.294;14.480;2023-06-26T06:39:06;1.90;;;1.90;;
12689;SDS011;6409;56.294;14.480;2023-06-26T06:41:33;1.90;;;1.90;;
12689;SDS011;6409;56.294;14.480;2023-06-26T06:44:00;1.88;;;1.88;;
12689;SDS011;6409;56.294;14.480;2023-06-26T06:46:27;1.90;;;1.90;;
12689;SDS011;6409;56.294;14.480;2023-06-26T06:48:54;1.90;;;1.90;;
12689;SDS011;6409;56.294;14.480;2023-06-26T06:51:22;2.10;;;2.10;;
12689;SDS011;6409;56.294;14.480;2023-06-26T06:53:49;1.90;;;1.90;;
12689;SDS011;6409;56.294;14.480;2023-06-26T06:56:16;2.10;;;2.10;;
12689;SDS011;6409;56.294;14.480;2023-06-26T06:58:43;1.90;;;1.90;;
12689;SDS011;6409;56.294;14.480;2023-06-26T07:01:11;2.00;;;2.00;;
12689;SDS011;6409;56.294;14.480;2023-06-26T07:03:38;2.10;;;2.10;;
12689;SDS011;6409;56.294;14.480;2023-06-26T07:06:05;2.10;;;2.10;;
12689;SDS011;6409;56.294;14.480;2023-06-26T07:08:34;2.40;;;2.30;;
12689;SDS011;6409;56.294;14.480;2023-06-26T07:11:01;2.20;;;2.20;;
12689;SDS011;6409;56.294;14.480;2023-06-26T07:13:28;2.20;;;2.20;;
12689;SDS011;6409;56.294;14.480;2023-06-26T07:15:55;2.30;;;2.30;;
12689;SDS011;6409;56.294;14.480;2023-06-26T07:18:22;2.20;;;2.20;;
12689;SDS011;6409;56.294;14.480;2023-06-26T07:20:48;2.20;;;2.20;;
12689;SDS011;6409;56.294;14.480;2023-06-26T07:23:15;2.20;;;2.20;;
12689;SDS011;6409;56.294;14.480;2023-06-26T07:25:44;2.28;;;2.28;;
12689;SDS011;6409;56.294;14.480;2023-06-26T07:28:11;2.10;;;2.10;;
12689;SDS011;6409;56.294;14.480;2023-06-26T07:30:38;2.10;;;2.10;;
12689;SDS011;6409;56.294;14.480;2023-06-26T07:33:05;2.13;;;2.13;;
12689;SDS011;6409;56.294;14.480;2023-06-26T07:35:32;2.22;;;2.22;;
12689;SDS011;6409;56.294;14.480;2023-06-26T07:37:59;2.40;;;2.30;;
12689;SDS011;6409;56.294;14.480;2023-06-26T07:40:26;2.25;;;2.22;;
12689;SDS011;6409;56.294;14.480;2023-06-26T07:42:54;2.30;;;2.30;;
12689;SDS011;6409;56.294;14.480;2023-06-26T07:45:23;2.20;;;2.20;;
12689;SDS011;6409;56.294;14.480;2023-06-26T07:47:50;2.10;;;2.10;;
12689;SDS011;6409;56.294;14.480;2023-06-26T07:50:17;2.10;;;2.10;;
12689;SDS011;6409;56.294;14.480;2023-06-26T07:52:47;2.20;;;2.20;;
12689;SDS011;6409;56.294;14.480;2023-06-26T07:55:15;2.20;;;2.20;;
12689;SDS011;6409;56.294;14.480;2023-06-26T07:57:42;2.10;;;2.10;;
12689;SDS011;6409;56.294;14.480;2023-06-26T08:00:12;2.20;;;2.20;;
12689;SDS011;6409;56.294;14.480;2023-06-26T08:02:39;2.40;;;2.30;;
12689;SDS011;6409;56.294;14.480;2023-06-26T08:05:07;2.20;;;2.20;;
12689;SDS011;6409;56.294;14.480;2023-06-26T08:07:35;2.30;;;2.30;;
12689;SDS011;6409;56.294;14.480;2023-06-26T08:10:02;2.40;;;2.30;;
12689;SDS011;6409;56.294;14.480;2023-06-26T08:12:30;2.50;;;2.40;;
12689;SDS011;6409;56.294;14.480;2023-06-26T08:14:57;2.50;;;2.40;;
12689;SDS011;6409;56.294;14.480;2023-06-26T08:17:25;2.40;;;2.30;;
12689;SDS011;6409;56.294;14.480;2023-06-26T08:19:52;2.40;;;2.30;;
12689;SDS011;6409;56.294;14.480;2023-06-26T08:22:19;2.30;;;2.30;;
12689;SDS011;6409;56.294;14.480;2023-06-26T08:24:45;2.20;;;2.20;;
12689;SDS011;6409;56.294;14.480;2023-06-26T08:27:12;2.33;;;2.30;;
12689;SDS011;6409;56.294;14.480;2023-06-26T08:29:39;2.25;;;2.25;;
12689;SDS011;6409;56.294;14.480;2023-06-26T08:32:06;2.40;;;2.30;;
12689;SDS011;6409;56.294;14.480;2023-06-26T08:34:35;2.30;;;2.30;;
12689;SDS011;6409;56.294;14.480;2023-06-26T08:37:02;2.40;;;2.30;;
12689;SDS011;6409;56.294;14.480;2023-06-26T08:39:29;2.40;;;2.30;;
12689;SDS011;6409;56.294;14.480;2023-06-26T08:41:56;2.40;;;2.30;;
12689;SDS011;6409;56.294;14.480;2023-06-26T08:44:23;2.38;;;2.30;;
12689;SDS011;6409;56.294;14.480;2023-06-26T08:46:50;2.20;;;2.20;;
12689;SDS011;6409;56.294;14.480;2023-06-26T08:49:18;2.33;;;2.30;;
12689;SDS011;6409;56.294;14.480;2023-06-26T08:51:51;2.20;;;2.20;;
12689;SDS011;6409;56.294;14.480;2023-06-26T08:54:19;2.33;;;2.30;;
12689;SDS011;6409;56.294;14.480;2023-06-26T08:56:53;2.30;;;2.30;;
12689;SDS011;6409;56.294;14.480;2023-06-26T08:59:21;2.47;;;2.38;;
12689;SDS011;6409;56.294;14.480;2023-06-26T09:01:48;2.50;;;2.40;;
12689;SDS011;6409;56.294;14.480;2023-06-26T09:04:15;2.50;;;2.40;;
12689;SDS011;6409;56.294;14.480;2023-06-26T09:06:42;2.40;;;2.30;;
12689;SDS011;6409;56.294;14.480;2023-06-26T09:09:10;2.30;;;2.30;;
12689;SDS011;6409;56.294;14.480;2023-06-26T09:11:37;2.50;;;2.40;;
12689;SDS011;6409;56.294;14.480;2023-06-26T09:14:04;2.50;;;2.40;;
12689;SDS011;6409;56.294;14.480;2023-06-26T09:16:39;2.80;;;2.70;;
12689;SDS011;6409;56.294;14.480;2023-06-26T09:19:08;2.90;;;2.80;;
12689;SDS011;6409;56.294;14.480;2023-06-26T09:21:37;3.10;;;3.00;;
12689;SDS011;6409;56.294;14.480;2023-06-26T09:24:05;3.00;;;2.90;;
12689;SDS011;6409;56.294;14.480;2023-06-26T09:26:34;3.10;;;3.00;;
12689;SDS011;6409;56.294;14.480;2023-06-26T09:29:02;3.20;;;3.10;;
12689;SDS011;6409;56.294;14.480;2023-06-26T09:31:29;3.10;;;3.00;;
12689;SDS011;6409;56.294;14.480;2023-06-26T09:33:57;3.38;;;3.28;;
12689;SDS011;6409;56.294;14.480;2023-06-26T09:36:26;2.90;;;2.80;;
12689;SDS011;6409;56.294;14.480;2023-06-26T09:38:57;2.67;;;2.58;;
12689;SDS011;6409;56.294;14.480;2023-06-26T09:41:25;2.70;;;2.60;;
12689;SDS011;6409;56.294;14.480;2023-06-26T09:43:53;2.80;;;2.70;;
12689;SDS011;6409;56.294;14.480;2023-06-26T09:46:24;2.80;;;2.70;;
12689;SDS011;6409;56.294;14.480;2023-06-26T09:48:57;2.70;;;2.60;;
12689;SDS011;6409;56.294;14.480;2023-06-26T09:51:27;2.95;;;2.85;;
12689;SDS011;6409;56.294;14.480;2023-06-26T09:53:55;3.10;;;3.00;;
12689;SDS011;6409;56.294;14.480;2023-06-26T09:56:23;3.30;;;3.20;;
12689;SDS011;6409;56.294;14.480;2023-06-26T09:58:53;3.45;;;3.35;;
12689;SDS011;6409;56.294;14.480;2023-06-26T10:01:22;3.40;;;3.30;;
12689;SDS011;6409;56.294;14.480;2023-06-26T10:03:49;3.50;;;3.40;;
12689;SDS011;6409;56.294;14.480;2023-06-26T10:06:17;3.42;;;3.33;;
12689;SDS011;6409;56.294;14.480;2023-06-26T10:08:46;3.40;;;3.30;;
12689;SDS011;6409;56.294;14.480;2023-06-26T10:11:16;2.90;;;2.80;;
12689;SDS011;6409;56.294;14.480;2023-06-26T10:13:46;2.80;;;2.70;;
12689;SDS011;6409;56.294;14.480;2023-06-26T10:16:18;2.80;;;2.70;;
12689;SDS011;6409;56.294;14.480;2023-06-26T10:18:50;2.70;;;2.60;;
12689;SDS011;6409;56.294;14.480;2023-06-26T10:21:18;2.60;;;2.50;;
12689;SDS011;6409;56.294;14.480;2023-06-26T10:23:48;2.70;;;2.60;;
12689;SDS011;6409;56.294;14.480;2023-06-26T10:26:16;2.67;;;2.58;;
12689;SDS011;6409;56.294;14.480;2023-06-26T10:28:44;2.70;;;2.60;;
12689;SDS011;6409;56.294;14.480;2023-06-26T10:31:18;2.83;;;2.72;;
12689;SDS011;6409;56.294;14.480;2023-06-26T10:33:47;2.80;;;2.70;;
12689;SDS011;6409;56.294;14.480;2023-06-26T10:36:15;2.70;;;2.60;;
12689;SDS011;6409;56.294;14.480;2023-06-26T10:38:50;2.70;;;2.60;;
12689;SDS011;6409;56.294;14.480;2023-06-26T10:41:21;2.80;;;2.70;;
12689;SDS011;6409;56.294;14.480;2023-06-26T10:43:49;2.78;;;2.67;;
12689;SDS011;6409;56.294;14.480;2023-06-26T10:46:18;2.83;;;2.72;;
12689;SDS011;6409;56.294;14.480;2023-06-26T10:48:55;2.80;;;2.70;;
12689;SDS011;6409;56.294;14.480;2023-06-26T10:51:23;2.90;;;2.80;;
12689;SDS011;6409;56.294;14.480;2023-06-26T10:53:53;2.88;;;2.78;;
12689;SDS011;6409;56.294;14.480;2023-06-26T10:56:20;2.90;;;2.80;;
12689;SDS011;6409;56.294;14.480;2023-06-26T10:58:47;3.20;;;3.10;;
12689;SDS011;6409;56.294;14.480;2023-06-26T11:01:22;3.80;;;3.70;;
12689;SDS011;6409;56.294;14.480;2023-06-26T11:03:59;3.90;;;3.80;;
12689;SDS011;6409;56.294;14.480;2023-06-26T11:06:28;3.85;;;3.75;;
12689;SDS011;6409;56.294;14.480;2023-06-26T11:08:59;4.00;;;3.90;;
12689;SDS011;6409;56.294;14.480;2023-06-26T11:14:24;4.00;;;3.90;;
12689;SDS011;6409;56.294;14.480;2023-06-26T11:16:53;3.85;;;3.75;;
12689;SDS011;6409;56.294;14.480;2023-06-26T11:19:22;3.10;;;3.00;;
12689;SDS011;6409;56.294;14.480;2023-06-26T11:21:48;3.10;;;3.00;;
12689;SDS011;6409;56.294;14.480;2023-06-26T11:24:18;3.20;;;3.10;;
12689;SDS011;6409;56.294;14.480;2023-06-26T11:26:47;2.90;;;2.80;;
12689;SDS011;6409;56.294;14.480;2023-06-26T11:29:14;2.90;;;2.80;;
12689;SDS011;6409;56.294;14.480;2023-06-26T11:31:41;2.80;;;2.70;;
12689;SDS011;6409;56.294;14.480;2023-06-26T11:34:10;2.80;;;2.70;;
12689;SDS011;6409;56.294;14.480;2023-06-26T11:36:38;2.90;;;2.80;;
12689;SDS011;6409;56.294;14.480;2023-06-26T11:39:07;2.70;;;2.60;;
12689;SDS011;6409;56.294;14.480;2023-06-26T11:41:35;2.90;;;2.80;;
12689;SDS011;6409;56.294;14.480;2023-06-26T11:44:02;2.80;;;2.70;;
12689;SDS011;6409;56.294;14.480;2023-06-26T11:46:30;2.90;;;2.80;;
12689;SDS011;6409;56.294;14.480;2023-06-26T11:48:58;2.80;;;2.70;;
12689;SDS011;6409;56.294;14.480;2023-06-26T11:51:27;3.00;;;2.90;;
12689;SDS011;6409;56.294;14.480;2023-06-26T11:53:54;2.80;;;2.70;;
12689;SDS011;6409;56.294;14.480;2023-06-26T11:56:21;3.15;;;3.05;;
12689;SDS011;6409;56.294;14.480;2023-06-26T11:58:56;3.00;;;2.90;;
12689;SDS011;6409;56.294;14.480;2023-06-26T12:01:23;3.05;;;2.95;;
12689;SDS011;6409;56.294;14.480;2023-06-26T12:03:51;3.00;;;2.90;;
12689;SDS011;6409;56.294;14.480;2023-06-26T12:06:21;3.05;;;2.95;;
12689;SDS011;6409;56.294;14.480;2023-06-26T12:08:49;3.00;;;2.90;;
12689;SDS011;6409;56.294;14.480;2023-06-26T12:11:16;3.00;;;2.90;;
12689;SDS011;6409;56.294;14.480;2023-06-26T12:13:43;3.05;;;2.95;;
12689;SDS011;6409;56.294;14.480;2023-06-26T12:16:11;3.10;;;3.00;;
12689;SDS011;6409;56.294;14.480;2023-06-26T12:18:40;3.13;;;3.03;;
12689;SDS011;6409;56.294;14.480;2023-06-26T12:21:07;3.20;;;3.10;;
12689;SDS011;6409;56.294;14.480;2023-06-26T12:23:38;3.10;;;3.00;;
12689;SDS011;6409;56.294;14.480;2023-06-26T12:26:18;3.10;;;3.00;;
12689;SDS011;6409;56.294;14.480;2023-06-26T12:28:45;3.10;;;3.00;;
12689;SDS011;6409;56.294;14.480;2023-06-26T12:31:13;3.20;;;3.10;;
12689;SDS011;6409;56.294;14.480;2023-06-26T12:33:42;3.08;;;2.97;;
12689;SDS011;6409;56.294;14.480;2023-06-26T12:36:10;3.00;;;2.90;;
12689;SDS011;6409;56.294;14.480;2023-06-26T12:38:38;3.10;;;3.00;;
12689;SDS011;6409;56.294;14.480;2023-06-26T12:41:05;2.90;;;2.80;;
12689;SDS011;6409;56.294;14.480;2023-06-26T12:43:33;3.00;;;2.90;;
12689;SDS011;6409;56.294;14.480;2023-06-26T12:46:05;3.08;;;2.97;;
12689;SDS011;6409;56.294;14.480;2023-06-26T12:48:38;3.00;;;2.90;;
12689;SDS011;6409;56.294;14.480;2023-06-26T12:51:09;3.10;;;3.00;;
12689;SDS011;6409;56.294;14.480;2023-06-26T12:53:37;3.25;;;3.15;;
12689;SDS011;6409;56.294;14.480;2023-06-26T12:56:05;3.10;;;3.00;;
12689;SDS011;6409;56.294;14.480;2023-06-26T12:58:33;3.00;;;2.90;;
12689;SDS011;6409;56.294;14.480;2023-06-26T13:01:02;3.10;;;3.00;;
12689;SDS011;6409;56.294;14.480;2023-06-26T13:03:30;3.10;;;3.00;;
12689;SDS011;6409;56.294;14.480;2023-06-26T13:05:57;3.00;;;2.90;;
12689;SDS011;6409;56.294;14.480;2023-06-26T13:08:23;3.00;;;2.90;;
12689;SDS011;6409;56.294;14.480;2023-06-26T13:10:50;2.95;;;2.85;;
12689;SDS011;6409;56.294;14.480;2023-06-26T13:13:17;3.00;;;2.90;;
12689;SDS011;6409;56.294;14.480;2023-06-26T13:15:46;3.00;;;2.90;;
12689;SDS011;6409;56.294;14.480;2023-06-26T13:18:14;2.90;;;2.80;;
12689;SDS011;6409;56.294;14.480;2023-06-26T13:20:41;2.80;;;2.70;;
12689;SDS011;6409;56.294;14.480;2023-06-26T13:23:08;2.80;;;2.70;;
12689;SDS011;6409;56.294;14.480;2023-06-26T13:25:35;2.80;;;2.70;;
12689;SDS011;6409;56.294;14.480;2023-06-26T13:28:02;2.80;;;2.70;;
12689;SDS011;6409;56.294;14.480;2023-06-26T13:30:29;2.70;;;2.60;;
12689;SDS011;6409;56.294;14.480;2023-06-26T13:32:57;2.60;;;2.50;;
12689;SDS011;6409;56.294;14.480;2023-06-26T13:35:24;2.50;;;2.40;;
12689;SDS011;6409;56.294;14.480;2023-06-26T13:37:51;2.50;;;2.40;;
12689;SDS011;6409;56.294;14.480;2023-06-26T13:40:18;2.33;;;2.30;;
12689;SDS011;6409;56.294;14.480;2023-06-26T13:42:45;2.30;;;2.30;;
12689;SDS011;6409;56.294;14.480;2023-06-26T13:45:12;2.10;;;2.10;;
12689;SDS011;6409;56.294;14.480;2023-06-26T13:47:39;2.00;;;2.00;;
12689;SDS011;6409;56.294;14.480;2023-06-26T13:50:08;2.40;;;2.30;;
12689;SDS011;6409;56.294;14.480;2023-06-26T13:52:36;2.42;;;2.33;;
12689;SDS011;6409;56.294;14.480;2023-06-26T13:55:03;2.20;;;2.20;;
12689;SDS011;6409;56.294;14.480;2023-06-26T13:57:30;2.50;;;2.40;;
12689;SDS011;6409;56.294;14.480;2023-06-26T13:59:57;2.40;;;2.30;;
12689;SDS011;6409;56.294;14.480;2023-06-26T14:02:24;2.10;;;2.10;;
12689;SDS011;6409;56.294;14.480;2023-06-26T14:04:52;2.10;;;2.10;;
12689;SDS011;6409;56.294;14.480;2023-06-26T14:07:20;2.10;;;2.10;;
12689;SDS011;6409;56.294;14.480;2023-06-26T14:09:47;2.08;;;2.08;;
12689;SDS011;6409;56.294;14.480;2023-06-26T14:12:14;2.00;;;2.00;;
12689;SDS011;6409;56.294;14.480;2023-06-26T14:14:41;2.20;;;2.20;;
12689;SDS011;6409;56.294;14.480;2023-06-26T14:17:08;2.10;;;2.10;;
12689;SDS011;6409;56.294;14.480;2023-06-26T14:19:41;2.00;;;2.00;;
12689;SDS011;6409;56.294;14.480;2023-06-26T14:22:08;2.10;;;2.10;;
12689;SDS011;6409;56.294;14.480;2023-06-26T14:24:36;2.10;;;2.10;;
12689;SDS011;6409;56.294;14.480;2023-06-26T14:27:03;2.10;;;2.10;;
12689;SDS011;6409;56.294;14.480;2023-06-26T14:29:30;2.20;;;2.20;;
12689;SDS011;6409;56.294;14.480;2023-06-26T14:31:57;2.10;;;2.10;;
12689;SDS011;6409;56.294;14.480;2023-06-26T14:34:24;2.20;;;2.20;;
12689;SDS011;6409;56.294;14.480;2023-06-26T14:36:51;2.10;;;2.10;;
12689;SDS011;6409;56.294;14.480;2023-06-26T14:39:18;2.10;;;2.10;;
12689;SDS011;6409;56.294;14.480;2023-06-26T14:41:46;2.10;;;2.10;;
12689;SDS011;6409;56.294;14.480;2023-06-26T14:44:13;2.20;;;2.20;;
12689;SDS011;6409;56.294;14.480;2023-06-26T14:46:40;2.20;;;2.20;;
12689;SDS011;6409;56.294;14.480;2023-06-26T14:49:08;2.10;;;2.10;;
12689;SDS011;6409;56.294;14.480;2023-06-26T14:51:34;2.03;;;2.03;;
12689;SDS011;6409;56.294;14.480;2023-06-26T14:54:03;2.10;;;2.10;;